sensor_id;sensor_type;location;lat;lon;timestamp;temperature;humidity
23550;DHT22;11953;49.010;8.608;2022-12-16T00:00:05;-0.20;99.90
23550;DHT22;11953;49.010;8.608;2022-12-16T00:02:57;-0.20;99.90
23550;DHT22;11953;49.010;8.608;2022-12-16T00:05:44;-0.10;99.90
23550;DHT22;11953;49.010;8.608;2022-12-16T00:08:35;-0.20;99.90
23550;DHT22;11953;49.010;8.608;2022-12-16T00:11:22;-0.10;99.90
23550;DHT22;11953;49.010;8.608;2022-12-16T00:14:08;0.00;99.90
23550;DHT22;11953;49.010;8.608;2022-12-16T00:16:55;0.20;99.90
23550;DHT22;11953;49.010;8.608;2022-12-16T00:19:43;0.30;99.90
23550;DHT22;11953;49.010;8.608;2022-12-16T00:22:29;0.40;99.90
23550;DHT22;11953;49.010;8.608;2022-12-16T00:25:16;0.50;99.90
23550;DHT22;11953;49.010;8.608;2022-12-16T00:28:02;0.50;99.90
23550;DHT22;11953;49.010;8.608;2022-12-16T00:30:50;0.40;99.90
23550;DHT22;11953;49.010;8.608;2022-12-16T00:33:39;0.20;99.90
23550;DHT22;11953;49.010;8.608;2022-12-16T00:36:27;0.10;99.90
23550;DHT22;11953;49.010;8.608;2022-12-16T00:39:14;0.00;99.90
23550;DHT22;11953;49.010;8.608;2022-12-16T00:42:00;0.00;99.90
23550;DHT22;11953;49.010;8.608;2022-12-16T00:44:46;0.20;99.90
23550;DHT22;11953;49.010;8.608;2022-12-16T00:47:33;0.20;99.90
23550;DHT22;11953;49.010;8.608;2022-12-16T00:50:26;0.20;99.90
23550;DHT22;11953;49.010;8.608;2022-12-16T00:53:14;0.30;99.90
23550;DHT22;11953;49.010;8.608;2022-12-16T00:56:02;0.40;99.90
23550;DHT22;11953;49.010;8.608;2022-12-16T00:58:49;0.40;99.90
23550;DHT22;11953;49.010;8.608;2022-12-16T01:01:35;0.30;99.90
23550;DHT22;11953;49.010;8.608;2022-12-16T01:04:22;0.40;99.90
23550;DHT22;11953;49.010;8.608;2022-12-16T01:07:10;0.40;99.90
23550;DHT22;11953;49.010;8.608;2022-12-16T01:09:59;0.40;99.90
23550;DHT22;11953;49.010;8.608;2022-12-16T01:12:46;0.50;99.90
23550;DHT22;11953;49.010;8.608;2022-12-16T01:15:36;0.40;99.90
23550;DHT22;11953;49.010;8.608;2022-12-16T01:18:22;0.40;99.90
23550;DHT22;11953;49.010;8.608;2022-12-16T01:21:11;0.40;99.90
23550;DHT22;11953;49.010;8.608;2022-12-16T01:23:58;0.40;99.90
23550;DHT22;11953;49.010;8.608;2022-12-16T01:26:46;0.40;99.90
23550;DHT22;11953;49.010;8.608;2022-12-16T01:29:33;0.50;99.90
23550;DHT22;11953;49.010;8.608;2022-12-16T01:32:20;0.50;99.90
23550;DHT22;11953;49.010;8.608;2022-12-16T01:35:07;0.50;99.90
23550;DHT22;11953;49.010;8.608;2022-12-16T01:38:14;0.40;99.90
23550;DHT22;11953;49.010;8.608;2022-12-16T01:41:01;0.30;99.90
23550;DHT22;11953;49.010;8.608;2022-12-16T01:43:49;0.30;99.90
23550;DHT22;11953;49.010;8.608;2022-12-16T01:46:36;0.30;99.90
23550;DHT22;11953;49.010;8.608;2022-12-16T01:49:25;0.30;99.90
23550;DHT22;11953;49.010;8.608;2022-12-16T01:52:17;0.20;99.90
23550;DHT22;11953;49.010;8.608;2022-12-16T01:55:08;0.20;99.90
23550;DHT22;11953;49.010;8.608;2022-12-16T01:58:01;0.30;99.90
23550;DHT22;11953;49.010;8.608;2022-12-16T02:00:50;0.30;99.90
23550;DHT22;11953;49.010;8.608;2022-12-16T02:03:41;0.20;99.90
23550;DHT22;11953;49.010;8.608;2022-12-16T02:06:28;0.10;99.90
23550;DHT22;11953;49.010;8.608;2022-12-16T02:09:16;0.10;99.90
23550;DHT22;11953;49.010;8.608;2022-12-16T02:12:17;0.10;99.90
23550;DHT22;11953;49.010;8.608;2022-12-16T02:15:15;0.10;99.90
23550;DHT22;11953;49.010;8.608;2022-12-16T02:18:11;0.00;99.90
23550;DHT22;11953;49.010;8.608;2022-12-16T02:21:29;0.10;99.90
23550;DHT22;11953;49.010;8.608;2022-12-16T02:24:47;-0.10;99.90
23550;DHT22;11953;49.010;8.608;2022-12-16T02:27:48;-0.10;99.90
23550;DHT22;11953;49.010;8.608;2022-12-16T02:30:50;0.10;99.90
23550;DHT22;11953;49.010;8.608;2022-12-16T02:33:57;0.20;99.90
23550;DHT22;11953;49.010;8.608;2022-12-16T02:37:00;0.20;99.90
23550;DHT22;11953;49.010;8.608;2022-12-16T02:39:54;0.20;99.90
23550;DHT22;11953;49.010;8.608;2022-12-16T02:42:46;0.20;99.90
23550;DHT22;11953;49.010;8.608;2022-12-16T02:45:37;0.30;99.90
23550;DHT22;11953;49.010;8.608;2022-12-16T02:48:25;0.30;99.90
23550;DHT22;11953;49.010;8.608;2022-12-16T02:51:12;0.20;99.90
23550;DHT22;11953;49.010;8.608;2022-12-16T02:53:59;0.20;99.90
23550;DHT22;11953;49.010;8.608;2022-12-16T02:56:53;0.30;99.90
23550;DHT22;11953;49.010;8.608;2022-12-16T02:59:50;0.30;99.90
23550;DHT22;11953;49.010;8.608;2022-12-16T03:02:44;0.40;99.90
23550;DHT22;11953;49.010;8.608;2022-12-16T03:05:37;0.30;99.90
23550;DHT22;11953;49.010;8.608;2022-12-16T03:08:29;0.30;99.90
23550;DHT22;11953;49.010;8.608;2022-12-16T03:11:17;0.30;99.90
23550;DHT22;11953;49.010;8.608;2022-12-16T03:14:04;0.40;99.90
23550;DHT22;11953;49.010;8.608;2022-12-16T03:16:52;0.40;99.90
23550;DHT22;11953;49.010;8.608;2022-12-16T03:19:42;0.30;99.90
23550;DHT22;11953;49.010;8.608;2022-12-16T03:22:35;0.30;99.90
23550;DHT22;11953;49.010;8.608;2022-12-16T03:25:23;0.40;99.90
23550;DHT22;11953;49.010;8.608;2022-12-16T03:28:22;0.40;99.90
23550;DHT22;11953;49.010;8.608;2022-12-16T03:31:16;0.30;99.90
23550;DHT22;11953;49.010;8.608;2022-12-16T03:34:10;0.40;99.90
23550;DHT22;11953;49.010;8.608;2022-12-16T03:36:59;0.40;99.90
23550;DHT22;11953;49.010;8.608;2022-12-16T03:39:51;0.40;99.90
23550;DHT22;11953;49.010;8.608;2022-12-16T03:42:39;0.30;99.90
23550;DHT22;11953;49.010;8.608;2022-12-16T03:45:29;0.20;99.90
23550;DHT22;11953;49.010;8.608;2022-12-16T03:48:22;0.20;99.90
23550;DHT22;11953;49.010;8.608;2022-12-16T03:51:09;0.30;99.90
23550;DHT22;11953;49.010;8.608;2022-12-16T03:53:55;0.00;99.90
23550;DHT22;11953;49.010;8.608;2022-12-16T03:56:43;0.00;99.90
23550;DHT22;11953;49.010;8.608;2022-12-16T03:59:30;0.10;99.90
23550;DHT22;11953;49.010;8.608;2022-12-16T04:02:16;0.00;99.90
23550;DHT22;11953;49.010;8.608;2022-12-16T04:05:03;0.10;99.90
23550;DHT22;11953;49.010;8.608;2022-12-16T04:07:50;0.20;99.90
23550;DHT22;11953;49.010;8.608;2022-12-16T04:10:40;0.20;99.90
23550;DHT22;11953;49.010;8.608;2022-12-16T04:13:45;0.20;99.90
23550;DHT22;11953;49.010;8.608;2022-12-16T04:16:49;0.20;99.90
23550;DHT22;11953;49.010;8.608;2022-12-16T04:19:53;0.20;99.90
23550;DHT22;11953;49.010;8.608;2022-12-16T04:22:57;0.20;99.90
23550;DHT22;11953;49.010;8.608;2022-12-16T04:26:01;0.10;99.90
23550;DHT22;11953;49.010;8.608;2022-12-16T04:28:48;0.10;99.90
23550;DHT22;11953;49.010;8.608;2022-12-16T04:31:35;0.10;99.90
23550;DHT22;11953;49.010;8.608;2022-12-16T04:34:23;0.10;99.90
23550;DHT22;11953;49.010;8.608;2022-12-16T04:37:11;0.10;99.90
23550;DHT22;11953;49.010;8.608;2022-12-16T04:40:16;0.00;99.90
23550;DHT22;11953;49.010;8.608;2022-12-16T04:43:20;0.10;99.90
23550;DHT22;11953;49.010;8.608;2022-12-16T04:46:25;0.00;99.90
23550;DHT22;11953;49.010;8.608;2022-12-16T04:49:29;-0.10;99.90
23550;DHT22;11953;49.010;8.608;2022-12-16T04:52:34;-0.10;99.90
23550;DHT22;11953;49.010;8.608;2022-12-16T04:55:38;0.00;99.90
23550;DHT22;11953;49.010;8.608;2022-12-16T04:58:48;0.00;99.90
23550;DHT22;11953;49.010;8.608;2022-12-16T05:01:53;0.00;99.90
23550;DHT22;11953;49.010;8.608;2022-12-16T05:04:57;-0.10;99.90
23550;DHT22;11953;49.010;8.608;2022-12-16T05:08:00;-0.20;99.90
23550;DHT22;11953;49.010;8.608;2022-12-16T05:11:04;-0.20;99.90
23550;DHT22;11953;49.010;8.608;2022-12-16T05:14:04;-0.20;99.90
23550;DHT22;11953;49.010;8.608;2022-12-16T05:17:10;-0.20;99.90
23550;DHT22;11953;49.010;8.608;2022-12-16T05:20:15;-0.20;99.90
23550;DHT22;11953;49.010;8.608;2022-12-16T05:23:19;-0.10;99.90
23550;DHT22;11953;49.010;8.608;2022-12-16T05:26:23;-0.20;99.90
23550;DHT22;11953;49.010;8.608;2022-12-16T05:29:27;-0.20;99.90
23550;DHT22;11953;49.010;8.608;2022-12-16T05:32:33;-0.40;99.90
23550;DHT22;11953;49.010;8.608;2022-12-16T05:35:37;-0.40;99.90
23550;DHT22;11953;49.010;8.608;2022-12-16T05:38:40;-0.40;99.90
23550;DHT22;11953;49.010;8.608;2022-12-16T05:41:44;-0.40;99.90
23550;DHT22;11953;49.010;8.608;2022-12-16T05:44:48;-0.40;99.90
23550;DHT22;11953;49.010;8.608;2022-12-16T05:47:54;-0.50;99.90
23550;DHT22;11953;49.010;8.608;2022-12-16T05:51:06;-0.50;99.90
23550;DHT22;11953;49.010;8.608;2022-12-16T05:54:11;-0.50;99.90
23550;DHT22;11953;49.010;8.608;2022-12-16T05:57:15;-0.50;99.90
23550;DHT22;11953;49.010;8.608;2022-12-16T06:00:30;-0.60;99.90
23550;DHT22;11953;49.010;8.608;2022-12-16T06:03:36;-0.60;99.90
23550;DHT22;11953;49.010;8.608;2022-12-16T06:06:41;-0.70;99.90
23550;DHT22;11953;49.010;8.608;2022-12-16T06:09:45;-0.60;99.90
23550;DHT22;11953;49.010;8.608;2022-12-16T06:12:49;-0.60;99.90
23550;DHT22;11953;49.010;8.608;2022-12-16T06:15:53;-0.60;99.90
23550;DHT22;11953;49.010;8.608;2022-12-16T06:18:58;-0.50;99.90
23550;DHT22;11953;49.010;8.608;2022-12-16T06:22:01;-0.50;99.90
23550;DHT22;11953;49.010;8.608;2022-12-16T06:25:06;-0.50;99.90
23550;DHT22;11953;49.010;8.608;2022-12-16T06:28:10;-0.50;99.90
23550;DHT22;11953;49.010;8.608;2022-12-16T06:31:14;-0.60;99.90
23550;DHT22;11953;49.010;8.608;2022-12-16T06:34:20;-0.50;99.90
23550;DHT22;11953;49.010;8.608;2022-12-16T06:37:24;-0.70;99.90
23550;DHT22;11953;49.010;8.608;2022-12-16T06:40:28;-0.80;99.90
23550;DHT22;11953;49.010;8.608;2022-12-16T06:43:32;-0.80;99.90
23550;DHT22;11953;49.010;8.608;2022-12-16T06:46:36;-0.90;99.90
23550;DHT22;11953;49.010;8.608;2022-12-16T06:49:42;-1.00;99.90
23550;DHT22;11953;49.010;8.608;2022-12-16T06:52:46;-1.00;99.90
23550;DHT22;11953;49.010;8.608;2022-12-16T06:55:50;-1.00;99.90
23550;DHT22;11953;49.010;8.608;2022-12-16T06:58:54;-1.10;99.90
23550;DHT22;11953;49.010;8.608;2022-12-16T07:01:58;-1.10;99.90
23550;DHT22;11953;49.010;8.608;2022-12-16T07:05:04;-1.20;99.90
23550;DHT22;11953;49.010;8.608;2022-12-16T07:08:08;-1.40;99.90
23550;DHT22;11953;49.010;8.608;2022-12-16T07:11:12;-1.60;99.90
23550;DHT22;11953;49.010;8.608;2022-12-16T07:14:16;-1.80;99.90
23550;DHT22;11953;49.010;8.608;2022-12-16T07:17:20;-1.80;99.90
23550;DHT22;11953;49.010;8.608;2022-12-16T07:20:26;-1.70;99.90
23550;DHT22;11953;49.010;8.608;2022-12-16T07:23:30;-1.60;99.90
23550;DHT22;11953;49.010;8.608;2022-12-16T07:26:35;-1.80;99.90
23550;DHT22;11953;49.010;8.608;2022-12-16T07:29:39;-2.00;99.90
23550;DHT22;11953;49.010;8.608;2022-12-16T07:32:57;-2.20;99.90
23550;DHT22;11953;49.010;8.608;2022-12-16T07:36:03;-2.40;99.90
23550;DHT22;11953;49.010;8.608;2022-12-16T07:39:07;-2.50;99.90
23550;DHT22;11953;49.010;8.608;2022-12-16T07:42:12;-2.50;99.90
23550;DHT22;11953;49.010;8.608;2022-12-16T07:45:16;-2.60;99.90
23550;DHT22;11953;49.010;8.608;2022-12-16T07:48:27;-2.60;99.90
23550;DHT22;11953;49.010;8.608;2022-12-16T07:51:33;-2.50;99.90
23550;DHT22;11953;49.010;8.608;2022-12-16T07:54:37;-2.60;99.90
23550;DHT22;11953;49.010;8.608;2022-12-16T07:57:41;-2.60;99.90
23550;DHT22;11953;49.010;8.608;2022-12-16T08:00:51;-2.60;99.90
23550;DHT22;11953;49.010;8.608;2022-12-16T08:03:55;-2.50;99.90
23550;DHT22;11953;49.010;8.608;2022-12-16T08:07:00;-2.50;99.90
23550;DHT22;11953;49.010;8.608;2022-12-16T08:10:04;-2.30;99.90
23550;DHT22;11953;49.010;8.608;2022-12-16T08:13:09;-2.20;99.90
23550;DHT22;11953;49.010;8.608;2022-12-16T08:16:12;-2.10;99.90
23550;DHT22;11953;49.010;8.608;2022-12-16T08:19:16;-2.10;99.90
23550;DHT22;11953;49.010;8.608;2022-12-16T08:22:22;-1.90;99.90
23550;DHT22;11953;49.010;8.608;2022-12-16T08:25:26;-1.80;99.90
23550;DHT22;11953;49.010;8.608;2022-12-16T08:28:30;-1.60;99.90
23550;DHT22;11953;49.010;8.608;2022-12-16T08:31:34;-1.50;99.90
23550;DHT22;11953;49.010;8.608;2022-12-16T08:34:39;-1.60;99.90
23550;DHT22;11953;49.010;8.608;2022-12-16T08:37:45;-1.60;99.90
23550;DHT22;11953;49.010;8.608;2022-12-16T08:40:58;-1.50;99.90
23550;DHT22;11953;49.010;8.608;2022-12-16T08:44:01;-1.60;99.90
23550;DHT22;11953;49.010;8.608;2022-12-16T08:47:05;-1.50;99.90
23550;DHT22;11953;49.010;8.608;2022-12-16T08:50:12;-1.40;99.90
23550;DHT22;11953;49.010;8.608;2022-12-16T08:53:17;-1.30;99.90
23550;DHT22;11953;49.010;8.608;2022-12-16T08:56:21;-1.20;99.90
23550;DHT22;11953;49.010;8.608;2022-12-16T08:59:25;-1.20;99.90
23550;DHT22;11953;49.010;8.608;2022-12-16T09:02:30;-1.20;99.90
23550;DHT22;11953;49.010;8.608;2022-12-16T09:05:35;-1.00;99.90
23550;DHT22;11953;49.010;8.608;2022-12-16T09:08:41;-1.00;99.90
23550;DHT22;11953;49.010;8.608;2022-12-16T09:11:45;-0.90;99.90
23550;DHT22;11953;49.010;8.608;2022-12-16T09:14:49;-0.80;99.90
23550;DHT22;11953;49.010;8.608;2022-12-16T09:18:02;-0.70;99.90
23550;DHT22;11953;49.010;8.608;2022-12-16T09:21:06;-0.60;99.90
23550;DHT22;11953;49.010;8.608;2022-12-16T09:24:18;-0.60;99.90
23550;DHT22;11953;49.010;8.608;2022-12-16T09:27:23;-0.50;99.90
23550;DHT22;11953;49.010;8.608;2022-12-16T09:30:26;-0.50;99.90
23550;DHT22;11953;49.010;8.608;2022-12-16T09:33:30;-0.60;99.90
23550;DHT22;11953;49.010;8.608;2022-12-16T09:36:34;-0.60;99.90
23550;DHT22;11953;49.010;8.608;2022-12-16T09:39:41;-0.60;99.90
23550;DHT22;11953;49.010;8.608;2022-12-16T09:42:49;-0.50;99.90
23550;DHT22;11953;49.010;8.608;2022-12-16T09:45:57;-0.60;99.90
23550;DHT22;11953;49.010;8.608;2022-12-16T09:49:15;-0.30;99.90
23550;DHT22;11953;49.010;8.608;2022-12-16T09:52:21;-0.40;99.90
23550;DHT22;11953;49.010;8.608;2022-12-16T09:55:29;-0.30;99.90
23550;DHT22;11953;49.010;8.608;2022-12-16T09:58:38;-0.40;99.90
23550;DHT22;11953;49.010;8.608;2022-12-16T10:01:56;-0.40;99.90
23550;DHT22;11953;49.010;8.608;2022-12-16T10:05:01;-0.20;99.90
23550;DHT22;11953;49.010;8.608;2022-12-16T10:08:12;-0.10;99.90
23550;DHT22;11953;49.010;8.608;2022-12-16T10:11:22;0.20;99.90
23550;DHT22;11953;49.010;8.608;2022-12-16T10:14:35;0.20;99.90
23550;DHT22;11953;49.010;8.608;2022-12-16T10:17:44;0.20;99.90
23550;DHT22;11953;49.010;8.608;2022-12-16T10:20:51;0.10;99.90
23550;DHT22;11953;49.010;8.608;2022-12-16T10:24:01;0.30;99.90
23550;DHT22;11953;49.010;8.608;2022-12-16T10:27:13;0.30;99.90
23550;DHT22;11953;49.010;8.608;2022-12-16T10:30:17;0.40;99.90
23550;DHT22;11953;49.010;8.608;2022-12-16T10:33:24;0.50;99.90
23550;DHT22;11953;49.010;8.608;2022-12-16T10:36:31;0.40;99.90
23550;DHT22;11953;49.010;8.608;2022-12-16T10:39:40;0.30;99.90
23550;DHT22;11953;49.010;8.608;2022-12-16T10:42:51;0.50;99.90
23550;DHT22;11953;49.010;8.608;2022-12-16T10:46:05;0.60;99.90
23550;DHT22;11953;49.010;8.608;2022-12-16T10:49:14;0.70;99.90
23550;DHT22;11953;49.010;8.608;2022-12-16T10:52:18;0.80;99.90
23550;DHT22;11953;49.010;8.608;2022-12-16T10:55:28;0.70;99.90
23550;DHT22;11953;49.010;8.608;2022-12-16T10:58:41;0.70;99.90
23550;DHT22;11953;49.010;8.608;2022-12-16T11:01:56;0.60;99.90
23550;DHT22;11953;49.010;8.608;2022-12-16T11:05:00;0.50;99.90
23550;DHT22;11953;49.010;8.608;2022-12-16T11:08:22;0.40;99.90
23550;DHT22;11953;49.010;8.608;2022-12-16T11:11:28;0.30;99.90
23550;DHT22;11953;49.010;8.608;2022-12-16T11:14:33;0.30;99.90
23550;DHT22;11953;49.010;8.608;2022-12-16T11:18:01;0.40;99.90
23550;DHT22;11953;49.010;8.608;2022-12-16T11:21:11;0.30;99.90
23550;DHT22;11953;49.010;8.608;2022-12-16T11:24:17;0.40;99.90
23550;DHT22;11953;49.010;8.608;2022-12-16T11:27:24;0.40;99.90
23550;DHT22;11953;49.010;8.608;2022-12-16T11:30:29;0.50;99.90
23550;DHT22;11953;49.010;8.608;2022-12-16T11:33:33;0.70;99.90
23550;DHT22;11953;49.010;8.608;2022-12-16T11:36:39;0.80;99.90
23550;DHT22;11953;49.010;8.608;2022-12-16T11:39:44;0.80;99.90
23550;DHT22;11953;49.010;8.608;2022-12-16T11:42:57;0.90;99.90
23550;DHT22;11953;49.010;8.608;2022-12-16T11:46:11;0.90;99.90
23550;DHT22;11953;49.010;8.608;2022-12-16T11:49:23;1.00;99.90
23550;DHT22;11953;49.010;8.608;2022-12-16T11:52:29;1.00;99.90
23550;DHT22;11953;49.010;8.608;2022-12-16T11:55:35;1.00;99.90
23550;DHT22;11953;49.010;8.608;2022-12-16T11:58:57;1.10;99.90
23550;DHT22;11953;49.010;8.608;2022-12-16T12:02:11;1.00;99.90
23550;DHT22;11953;49.010;8.608;2022-12-16T12:05:22;1.20;99.90
23550;DHT22;11953;49.010;8.608;2022-12-16T12:08:31;1.20;99.90
23550;DHT22;11953;49.010;8.608;2022-12-16T12:11:41;1.20;99.90
23550;DHT22;11953;49.010;8.608;2022-12-16T12:14:52;1.40;99.90
23550;DHT22;11953;49.010;8.608;2022-12-16T12:18:07;1.50;99.90
23550;DHT22;11953;49.010;8.608;2022-12-16T12:21:32;1.30;99.90
23550;DHT22;11953;49.010;8.608;2022-12-16T12:24:46;1.40;99.90
23550;DHT22;11953;49.010;8.608;2022-12-16T12:27:58;1.50;99.90
23550;DHT22;11953;49.010;8.608;2022-12-16T12:31:29;1.50;99.90
23550;DHT22;11953;49.010;8.608;2022-12-16T12:34:43;1.30;99.90
23550;DHT22;11953;49.010;8.608;2022-12-16T12:37:54;1.30;99.90
23550;DHT22;11953;49.010;8.608;2022-12-16T12:41:05;1.40;99.90
23550;DHT22;11953;49.010;8.608;2022-12-16T12:44:19;1.50;99.90
23550;DHT22;11953;49.010;8.608;2022-12-16T12:47:34;1.60;99.90
23550;DHT22;11953;49.010;8.608;2022-12-16T12:50:47;1.60;99.90
23550;DHT22;11953;49.010;8.608;2022-12-16T12:53:58;1.50;99.90
23550;DHT22;11953;49.010;8.608;2022-12-16T12:57:06;1.30;99.90
23550;DHT22;11953;49.010;8.608;2022-12-16T13:00:16;1.40;99.90
23550;DHT22;11953;49.010;8.608;2022-12-16T13:03:27;1.30;99.90
23550;DHT22;11953;49.010;8.608;2022-12-16T13:06:36;1.40;99.90
23550;DHT22;11953;49.010;8.608;2022-12-16T13:09:40;1.50;99.90
23550;DHT22;11953;49.010;8.608;2022-12-16T13:13:24;1.60;99.90
23550;DHT22;11953;49.010;8.608;2022-12-16T13:17:04;1.70;99.90
23550;DHT22;11953;49.010;8.608;2022-12-16T13:20:35;1.60;99.90
23550;DHT22;11953;49.010;8.608;2022-12-16T13:23:43;1.60;99.90
23550;DHT22;11953;49.010;8.608;2022-12-16T13:26:59;1.50;99.90
23550;DHT22;11953;49.010;8.608;2022-12-16T13:30:18;1.60;99.90
23550;DHT22;11953;49.010;8.608;2022-12-16T13:33:28;1.50;99.90
23550;DHT22;11953;49.010;8.608;2022-12-16T13:36:33;1.50;99.90
23550;DHT22;11953;49.010;8.608;2022-12-16T13:39:40;1.60;99.90
23550;DHT22;11953;49.010;8.608;2022-12-16T13:42:52;1.60;99.90
23550;DHT22;11953;49.010;8.608;2022-12-16T13:46:15;1.40;99.90
23550;DHT22;11953;49.010;8.608;2022-12-16T13:49:45;1.40;99.90
23550;DHT22;11953;49.010;8.608;2022-12-16T13:52:55;1.30;99.90
23550;DHT22;11953;49.010;8.608;2022-12-16T13:56:04;1.30;99.90
23550;DHT22;11953;49.010;8.608;2022-12-16T13:59:15;1.20;99.90
23550;DHT22;11953;49.010;8.608;2022-12-16T14:02:23;1.30;99.90
23550;DHT22;11953;49.010;8.608;2022-12-16T14:05:32;1.40;99.90
23550;DHT22;11953;49.010;8.608;2022-12-16T14:08:39;1.30;99.90
23550;DHT22;11953;49.010;8.608;2022-12-16T14:11:49;1.40;99.90
23550;DHT22;11953;49.010;8.608;2022-12-16T14:15:02;1.40;99.90
23550;DHT22;11953;49.010;8.608;2022-12-16T14:18:19;1.50;99.90
23550;DHT22;11953;49.010;8.608;2022-12-16T14:21:33;1.50;99.90
23550;DHT22;11953;49.010;8.608;2022-12-16T14:24:41;1.60;99.90
23550;DHT22;11953;49.010;8.608;2022-12-16T14:27:47;1.50;99.90
23550;DHT22;11953;49.010;8.608;2022-12-16T14:31:02;1.40;99.90
23550;DHT22;11953;49.010;8.608;2022-12-16T14:34:18;1.30;99.90
23550;DHT22;11953;49.010;8.608;2022-12-16T14:37:33;1.40;99.90
23550;DHT22;11953;49.010;8.608;2022-12-16T14:40:38;1.30;99.90
23550;DHT22;11953;49.010;8.608;2022-12-16T14:43:43;1.20;99.90
23550;DHT22;11953;49.010;8.608;2022-12-16T14:46:50;1.30;99.90
23550;DHT22;11953;49.010;8.608;2022-12-16T14:49:54;1.30;99.90
23550;DHT22;11953;49.010;8.608;2022-12-16T14:53:12;1.30;99.90
23550;DHT22;11953;49.010;8.608;2022-12-16T14:56:17;1.30;99.90
23550;DHT22;11953;49.010;8.608;2022-12-16T14:59:23;1.20;99.90
23550;DHT22;11953;49.010;8.608;2022-12-16T15:02:30;1.30;99.90
23550;DHT22;11953;49.010;8.608;2022-12-16T15:05:38;1.20;99.90
23550;DHT22;11953;49.010;8.608;2022-12-16T15:08:48;1.10;99.90
23550;DHT22;11953;49.010;8.608;2022-12-16T15:11:54;1.20;99.90
23550;DHT22;11953;49.010;8.608;2022-12-16T15:15:03;1.10;99.90
23550;DHT22;11953;49.010;8.608;2022-12-16T15:18:14;1.00;99.90
23550;DHT22;11953;49.010;8.608;2022-12-16T15:21:20;1.00;99.90
23550;DHT22;11953;49.010;8.608;2022-12-16T15:24:25;1.00;99.90
23550;DHT22;11953;49.010;8.608;2022-12-16T15:27:34;1.10;99.90
23550;DHT22;11953;49.010;8.608;2022-12-16T15:30:41;1.10;99.90
23550;DHT22;11953;49.010;8.608;2022-12-16T15:33:45;1.10;99.90
23550;DHT22;11953;49.010;8.608;2022-12-16T15:36:49;1.10;99.90
23550;DHT22;11953;49.010;8.608;2022-12-16T15:39:53;1.10;99.90
23550;DHT22;11953;49.010;8.608;2022-12-16T15:42:57;1.00;99.90
23550;DHT22;11953;49.010;8.608;2022-12-16T15:46:03;0.90;99.90
23550;DHT22;11953;49.010;8.608;2022-12-16T15:49:16;0.80;99.90
23550;DHT22;11953;49.010;8.608;2022-12-16T15:52:30;0.90;99.90
23550;DHT22;11953;49.010;8.608;2022-12-16T15:55:38;0.90;99.90
23550;DHT22;11953;49.010;8.608;2022-12-16T15:58:49;0.70;99.90
23550;DHT22;11953;49.010;8.608;2022-12-16T16:01:54;0.70;99.90
23550;DHT22;11953;49.010;8.608;2022-12-16T16:04:59;0.70;99.90
23550;DHT22;11953;49.010;8.608;2022-12-16T16:08:04;0.80;99.90
23550;DHT22;11953;49.010;8.608;2022-12-16T16:11:07;0.70;99.90
23550;DHT22;11953;49.010;8.608;2022-12-16T16:14:12;0.60;99.90
23550;DHT22;11953;49.010;8.608;2022-12-16T16:17:21;0.70;99.90
23550;DHT22;11953;49.010;8.608;2022-12-16T16:20:25;0.70;99.90
23550;DHT22;11953;49.010;8.608;2022-12-16T16:23:29;0.80;99.90
23550;DHT22;11953;49.010;8.608;2022-12-16T16:26:34;0.70;99.90
23550;DHT22;11953;49.010;8.608;2022-12-16T16:29:52;0.80;99.90
23550;DHT22;11953;49.010;8.608;2022-12-16T16:33:10;0.90;99.90
23550;DHT22;11953;49.010;8.608;2022-12-16T16:36:14;0.90;99.90
23550;DHT22;11953;49.010;8.608;2022-12-16T16:39:18;0.70;99.90
23550;DHT22;11953;49.010;8.608;2022-12-16T16:42:22;0.70;99.90
23550;DHT22;11953;49.010;8.608;2022-12-16T16:45:26;0.80;99.90
23550;DHT22;11953;49.010;8.608;2022-12-16T16:48:32;0.80;99.90
23550;DHT22;11953;49.010;8.608;2022-12-16T16:51:36;0.80;99.90
23550;DHT22;11953;49.010;8.608;2022-12-16T16:54:40;0.80;99.90
23550;DHT22;11953;49.010;8.608;2022-12-16T16:57:45;0.80;99.90
23550;DHT22;11953;49.010;8.608;2022-12-16T17:00:50;0.70;99.90
23550;DHT22;11953;49.010;8.608;2022-12-16T17:03:56;0.70;99.90
23550;DHT22;11953;49.010;8.608;2022-12-16T17:07:00;0.60;99.90
23550;DHT22;11953;49.010;8.608;2022-12-16T17:10:03;0.50;99.90
23550;DHT22;11953;49.010;8.608;2022-12-16T17:13:08;0.60;99.90
23550;DHT22;11953;49.010;8.608;2022-12-16T17:16:12;0.70;99.90
23550;DHT22;11953;49.010;8.608;2022-12-16T17:19:18;0.60;99.90
23550;DHT22;11953;49.010;8.608;2022-12-16T17:22:23;0.70;99.90
23550;DHT22;11953;49.010;8.608;2022-12-16T17:25:27;0.60;99.90
23550;DHT22;11953;49.010;8.608;2022-12-16T17:28:31;0.50;99.90
23550;DHT22;11953;49.010;8.608;2022-12-16T17:31:35;0.50;99.90
23550;DHT22;11953;49.010;8.608;2022-12-16T17:34:40;0.60;99.90
23550;DHT22;11953;49.010;8.608;2022-12-16T17:37:45;0.70;99.90
23550;DHT22;11953;49.010;8.608;2022-12-16T17:40:50;0.70;99.90
23550;DHT22;11953;49.010;8.608;2022-12-16T17:43:55;0.60;99.90
23550;DHT22;11953;49.010;8.608;2022-12-16T17:46:59;0.50;99.90
23550;DHT22;11953;49.010;8.608;2022-12-16T17:50:05;0.60;99.90
23550;DHT22;11953;49.010;8.608;2022-12-16T17:53:10;0.70;99.90
23550;DHT22;11953;49.010;8.608;2022-12-16T17:56:14;0.60;99.90
23550;DHT22;11953;49.010;8.608;2022-12-16T17:59:18;0.50;99.90
23550;DHT22;11953;49.010;8.608;2022-12-16T18:02:22;0.40;99.90
23550;DHT22;11953;49.010;8.608;2022-12-16T18:05:29;0.50;99.90
23550;DHT22;11953;49.010;8.608;2022-12-16T18:08:30;0.50;99.90
23550;DHT22;11953;49.010;8.608;2022-12-16T18:11:34;0.60;99.90
23550;DHT22;11953;49.010;8.608;2022-12-16T18:14:38;0.50;99.90
23550;DHT22;11953;49.010;8.608;2022-12-16T18:17:50;0.60;99.90
23550;DHT22;11953;49.010;8.608;2022-12-16T18:20:59;0.50;99.90
23550;DHT22;11953;49.010;8.608;2022-12-16T18:24:11;0.40;99.90
23550;DHT22;11953;49.010;8.608;2022-12-16T18:27:15;0.40;99.90
23550;DHT22;11953;49.010;8.608;2022-12-16T18:30:20;0.30;99.90
23550;DHT22;11953;49.010;8.608;2022-12-16T18:33:24;0.20;99.90
23550;DHT22;11953;49.010;8.608;2022-12-16T18:36:35;0.30;99.90
23550;DHT22;11953;49.010;8.608;2022-12-16T18:39:39;0.40;99.90
23550;DHT22;11953;49.010;8.608;2022-12-16T18:42:43;0.50;99.90
23550;DHT22;11953;49.010;8.608;2022-12-16T18:45:51;0.50;99.90
23550;DHT22;11953;49.010;8.608;2022-12-16T18:48:55;0.40;99.90
23550;DHT22;11953;49.010;8.608;2022-12-16T18:52:00;0.50;99.90
23550;DHT22;11953;49.010;8.608;2022-12-16T18:55:05;0.30;99.90
23550;DHT22;11953;49.010;8.608;2022-12-16T18:58:10;0.30;99.90
23550;DHT22;11953;49.010;8.608;2022-12-16T19:01:34;0.30;99.90
23550;DHT22;11953;49.010;8.608;2022-12-16T19:04:38;0.30;99.90
23550;DHT22;11953;49.010;8.608;2022-12-16T19:07:43;0.20;99.90
23550;DHT22;11953;49.010;8.608;2022-12-16T19:10:47;0.30;99.90
23550;DHT22;11953;49.010;8.608;2022-12-16T19:13:51;0.30;99.90
23550;DHT22;11953;49.010;8.608;2022-12-16T19:16:55;0.20;99.90
23550;DHT22;11953;49.010;8.608;2022-12-16T19:19:59;0.30;99.90
23550;DHT22;11953;49.010;8.608;2022-12-16T19:23:04;0.20;99.90
23550;DHT22;11953;49.010;8.608;2022-12-16T19:26:14;0.20;99.90
23550;DHT22;11953;49.010;8.608;2022-12-16T19:29:18;0.20;99.90
23550;DHT22;11953;49.010;8.608;2022-12-16T19:32:22;0.20;99.90